ESMSESMK

Guest
Details From ESMS - Malmo Sturup
To ESMK - Kristianstad
Flight Number -
Tags generated
Created
Modified
Stats Distance 34 nm / 63 km
Max Altitude 4,000 ft / 1,219 m
Waypoints 3
Social Downloads 2
Likes 0
Share VATSIM

Download

Looking for another format? Having issues loading an existing format? Contact us
Advertisement - Login to hide

Notes

Basic altitude profile: - Ascent Rate: 2500ft/min - Ascent Speed: 250kts - Cruise Altitude: 35000ft - Cruise Speed: 420kts - Descent Rate: 1500ft/min - Descent Speed: 250kts Options: - Use NATs: yes - Use PACOTS: yes - Use low airways: yes - Use high airways: yes

Route

ESMS MAXUM ESMK

ID Type Via Altitude Latitude Longitude Leg Dist Tot Dist Heading (true) Name
O ESMS APT - 0 ft / 0 m 55.52888˚ 13.37111˚ - 0 nm - Malmo Sturup
MAXUM FIX - 4,000 ft / 1,219 m 55.66125˚ 13.60400˚ 11 nm 11 nm 45° / 45° -
O ESMK APT - 0 ft / 0 m 55.92169˚ 14.08553˚ 22 nm 33 nm 46° / 46° Kristianstad

Altitude Profile

Advertisement - Login to hide

ESMS

Details ICAO ESMS (MMX)
Name Malmo Sturup
Region Sweden
Timezone Europe/Stockholm (UTC+1.0)
Stats Elevation 236 ft / 72 m (AMSL)
Location 55.528883° 13.371109°
Runways 2
Magnetic Variation 3.965° E

METAR

ESMS 180250Z 18009KT CAVOK M01/M02 Q1020 R17/19//95

Decode

TAF

TAF ESMS 172306Z 1800/1824 19005KT 9999 SCT015 TEMPO 1800/1808 0300 FZFG VV002 TEMPO 1808/1824 BKN008

Decode

Departure Runways

ID Width Length Bearing (true) Bearing (mag) Surface Threshold Offset Overrun Length
11 59 ft / 18 m 2,609 ft / 795 m 105.31° 101.34° Asphalt 0 ft / 0 m 0 ft / 0 m
17 148 ft / 45 m 9,176 ft / 2,797 m 173.36° 169.39° Asphalt 0 ft / 0 m 98 ft / 30 m
29 59 ft / 18 m 2,609 ft / 795 m 285.32° 281.35° Asphalt 0 ft / 0 m 0 ft / 0 m
35 148 ft / 45 m 9,176 ft / 2,797 m 353.37° 349.40° Asphalt 0 ft / 0 m 98 ft / 30 m

ESMK

Details ICAO ESMK (KID)
Name Kristianstad
Region Sweden
Timezone Europe/Stockholm (UTC+1.0)
Stats Elevation 76 ft / 23 m (AMSL)
Location 55.921686° 14.085535°
Runways 1
Magnetic Variation 4.235° E

METAR

ESMK 180320Z AUTO 00000KT 0450 R01/P2000N R19/P2000N FZFG NCD M06/M06 Q1020

Decode

TAF

Not found

Destination Runways

ID Width Length Bearing (true) Bearing (mag) Surface Threshold Offset Overrun Length
01 148 ft / 45 m 7,259 ft / 2,213 m 7.13° 2.90° Asphalt 0 ft / 0 m 0 ft / 0 m
19 148 ft / 45 m 7,259 ft / 2,213 m 187.13° 182.90° Asphalt 0 ft / 0 m 0 ft / 0 m

Approach Navaids

Runway Type Ident Frequency Range Bearing (true) Bearing (mag) Slope Elevation
19 Localiser MK 108.50 MHz 18 nm / 33 km 187.13° 182.90° - 76 ft / 23 m (AMSL)
19 Glidescope MK 108.50 MHz 10 nm / 19 km 187.13° 182.90° 3.25° 76 ft / 23 m (AMSL)

Popular Alternatives